気象予報士の航空気象 やばいよ、火山灰さん!

*All archives   *Admin

スポンサーサイト

上記の広告は1ヶ月以上更新のないブログに表示されています。
新しい記事を書く事で広告が消せます。
--:--  |  スポンサー広告  |  EDIT  |  Top↑

2010.05.10 (Mon)

やばいよ、火山灰さん!

LFPG 101000Z 03010KT 360V080 9999 BKN020 SCT250 14/08 Q1007 NOSIG


パリのお昼、サマータイムでちょうど正午、曇り空。


だけど、上空には!?


VA10MAY2010.jpg


20100510/1200Z衛星画像 たぶん赤外 IR
VIS1200Z10MAY2010.jpg



VA1200Z10MAY2010.jpg



以前だったら、閉鎖しててもおかしくないような。


どういう基準で決めているのでしょう。


ただ、いつ閉鎖になってもおかしくはないという状態は続いています。



欧州火山灰動向予報 ← クリック



火山灰が飛行機の運航に影響する理由に興味のある方は、下記をクリック。


過去の火山に関するブログ
浅間山噴火 火山灰と飛行機
浅間山噴火 火山灰と飛行機 その2


ブリティッシュ・エアウェイズ9便エンジン故障事故 ウィキペディアより
ブリティッシュ・エアウェイズ9便エンジン故障事故



 
ブログランキングに参加しています。
にほんブログ村 環境ブログ 天気・気象学へ
にほんブログ村
応援クリックをおねがします。


以下、アフィリエイトサイトです。



スポンサーサイト
23:45  |  火山灰  |  TB(0)  |  CM(0)  |  EDIT  |  Top↑

コメントを投稿する


 管理者だけに表示  (非公開コメント投稿可能)

▲PageTop

この記事のトラックバックURL

→http://weathereucalyptus.blog115.fc2.com/tb.php/481-e95e0e3f
この記事にトラックバックする(FC2ブログユーザー)

この記事へのトラックバック

▲PageTop

 | BLOGTOP | 
上記広告は1ヶ月以上更新のないブログに表示されています。新しい記事を書くことで広告を消せます。